sensor_id;sensor_type;location;lat;lon;timestamp;P1;durP1;ratioP1;P2;durP2;ratioP2
33794;SDS011;51430;52.242;21.118;2023-05-07T00:02:19;6.10;;;5.50;;
33794;SDS011;51430;52.242;21.118;2023-05-07T00:04:47;7.00;;;5.20;;
33794;SDS011;51430;52.242;21.118;2023-05-07T00:07:15;6.00;;;5.50;;
33794;SDS011;51430;52.242;21.118;2023-05-07T00:09:43;7.10;;;5.80;;
33794;SDS011;51430;52.242;21.118;2023-05-07T00:12:11;6.70;;;5.90;;
33794;SDS011;51430;52.242;21.118;2023-05-07T00:14:39;6.40;;;5.80;;
33794;SDS011;51430;52.242;21.118;2023-05-07T00:17:06;6.70;;;6.10;;
33794;SDS011;51430;52.242;21.118;2023-05-07T00:19:34;8.00;;;6.40;;
33794;SDS011;51430;52.242;21.118;2023-05-07T00:22:02;8.00;;;5.70;;
33794;SDS011;51430;52.242;21.118;2023-05-07T00:24:30;7.80;;;5.80;;
33794;SDS011;51430;52.242;21.118;2023-05-07T00:26:57;6.50;;;5.70;;
33794;SDS011;51430;52.242;21.118;2023-05-07T00:29:25;7.80;;;6.30;;
33794;SDS011;51430;52.242;21.118;2023-05-07T00:31:53;7.30;;;6.50;;
33794;SDS011;51430;52.242;21.118;2023-05-07T00:34:22;7.00;;;6.20;;
33794;SDS011;51430;52.242;21.118;2023-05-07T00:36:50;7.70;;;6.20;;
33794;SDS011;51430;52.242;21.118;2023-05-07T00:39:17;6.80;;;5.60;;
33794;SDS011;51430;52.242;21.118;2023-05-07T00:41:45;6.50;;;5.60;;
33794;SDS011;51430;52.242;21.118;2023-05-07T00:44:13;6.20;;;5.60;;
33794;SDS011;51430;52.242;21.118;2023-05-07T00:46:41;6.00;;;5.40;;
33794;SDS011;51430;52.242;21.118;2023-05-07T00:49:10;5.90;;;5.10;;
33794;SDS011;51430;52.242;21.118;2023-05-07T00:51:38;6.70;;;5.30;;
33794;SDS011;51430;52.242;21.118;2023-05-07T00:54:06;5.80;;;5.20;;
33794;SDS011;51430;52.242;21.118;2023-05-07T00:56:35;8.00;;;5.00;;
33794;SDS011;51430;52.242;21.118;2023-05-07T00:59:03;5.80;;;5.20;;
33794;SDS011;51430;52.242;21.118;2023-05-07T01:01:31;6.50;;;5.80;;
33794;SDS011;51430;52.242;21.118;2023-05-07T01:03:59;6.30;;;5.70;;
33794;SDS011;51430;52.242;21.118;2023-05-07T01:06:27;6.30;;;5.70;;
33794;SDS011;51430;52.242;21.118;2023-05-07T01:08:57;6.50;;;5.70;;
33794;SDS011;51430;52.242;21.118;2023-05-07T01:11:27;6.90;;;6.30;;
33794;SDS011;51430;52.242;21.118;2023-05-07T01:13:55;8.00;;;6.10;;
33794;SDS011;51430;52.242;21.118;2023-05-07T01:16:25;7.10;;;6.40;;
33794;SDS011;51430;52.242;21.118;2023-05-07T01:18:54;6.20;;;5.30;;
33794;SDS011;51430;52.242;21.118;2023-05-07T01:21:25;6.60;;;5.40;;
33794;SDS011;51430;52.242;21.118;2023-05-07T01:23:56;5.80;;;5.20;;
33794;SDS011;51430;52.242;21.118;2023-05-07T01:26:24;5.50;;;4.90;;
33794;SDS011;51430;52.242;21.118;2023-05-07T01:28:52;5.50;;;4.90;;
33794;SDS011;51430;52.242;21.118;2023-05-07T01:31:20;5.50;;;4.90;;
33794;SDS011;51430;52.242;21.118;2023-05-07T01:33:49;6.20;;;5.00;;
33794;SDS011;51430;52.242;21.118;2023-05-07T01:36:20;5.30;;;4.80;;
33794;SDS011;51430;52.242;21.118;2023-05-07T01:38:51;5.80;;;5.30;;
33794;SDS011;51430;52.242;21.118;2023-05-07T01:41:19;7.60;;;5.40;;
33794;SDS011;51430;52.242;21.118;2023-05-07T01:43:48;5.70;;;5.10;;
33794;SDS011;51430;52.242;21.118;2023-05-07T01:46:18;5.80;;;5.20;;
33794;SDS011;51430;52.242;21.118;2023-05-07T01:48:46;5.70;;;5.10;;
33794;SDS011;51430;52.242;21.118;2023-05-07T01:51:15;6.00;;;5.40;;
33794;SDS011;51430;52.242;21.118;2023-05-07T01:53:43;5.50;;;5.00;;
33794;SDS011;51430;52.242;21.118;2023-05-07T01:56:13;6.50;;;5.40;;
33794;SDS011;51430;52.242;21.118;2023-05-07T01:58:40;5.80;;;5.20;;
33794;SDS011;51430;52.242;21.118;2023-05-07T02:01:08;8.10;;;5.30;;
33794;SDS011;51430;52.242;21.118;2023-05-07T02:03:36;7.60;;;5.70;;
33794;SDS011;51430;52.242;21.118;2023-05-07T02:06:04;6.10;;;5.50;;
33794;SDS011;51430;52.242;21.118;2023-05-07T02:08:32;6.30;;;5.70;;
33794;SDS011;51430;52.242;21.118;2023-05-07T02:11:00;5.90;;;5.30;;
33794;SDS011;51430;52.242;21.118;2023-05-07T02:13:28;5.80;;;5.20;;
33794;SDS011;51430;52.242;21.118;2023-05-07T02:15:57;6.70;;;5.10;;
33794;SDS011;51430;52.242;21.118;2023-05-07T02:18:25;6.80;;;5.40;;
33794;SDS011;51430;52.242;21.118;2023-05-07T02:20:54;5.20;;;4.70;;
33794;SDS011;51430;52.242;21.118;2023-05-07T02:23:21;6.20;;;5.10;;
33794;SDS011;51430;52.242;21.118;2023-05-07T02:25:49;6.30;;;4.90;;
33794;SDS011;51430;52.242;21.118;2023-05-07T02:28:17;5.20;;;4.70;;
33794;SDS011;51430;52.242;21.118;2023-05-07T02:30:44;5.80;;;4.90;;
33794;SDS011;51430;52.242;21.118;2023-05-07T02:33:13;5.80;;;4.90;;
33794;SDS011;51430;52.242;21.118;2023-05-07T02:35:41;5.10;;;4.60;;
33794;SDS011;51430;52.242;21.118;2023-05-07T02:38:09;5.50;;;5.00;;
33794;SDS011;51430;52.242;21.118;2023-05-07T02:40:38;5.90;;;5.10;;
33794;SDS011;51430;52.242;21.118;2023-05-07T02:43:07;6.30;;;4.60;;
33794;SDS011;51430;52.242;21.118;2023-05-07T02:45:34;5.60;;;5.10;;
33794;SDS011;51430;52.242;21.118;2023-05-07T02:48:05;5.10;;;4.60;;
33794;SDS011;51430;52.242;21.118;2023-05-07T02:50:35;6.40;;;4.70;;
33794;SDS011;51430;52.242;21.118;2023-05-07T02:53:03;5.90;;;4.50;;
33794;SDS011;51430;52.242;21.118;2023-05-07T02:55:31;5.50;;;4.70;;
33794;SDS011;51430;52.242;21.118;2023-05-07T02:57:58;4.70;;;4.30;;
33794;SDS011;51430;52.242;21.118;2023-05-07T03:00:26;4.80;;;4.40;;
33794;SDS011;51430;52.242;21.118;2023-05-07T03:02:54;6.20;;;4.50;;
33794;SDS011;51430;52.242;21.118;2023-05-07T03:05:22;5.80;;;4.90;;
33794;SDS011;51430;52.242;21.118;2023-05-07T03:07:49;5.70;;;4.50;;
33794;SDS011;51430;52.242;21.118;2023-05-07T03:10:17;6.30;;;4.70;;
33794;SDS011;51430;52.242;21.118;2023-05-07T03:12:45;5.10;;;4.70;;
33794;SDS011;51430;52.242;21.118;2023-05-07T03:15:13;5.70;;;5.20;;
33794;SDS011;51430;52.242;21.118;2023-05-07T03:17:41;5.90;;;5.40;;
33794;SDS011;51430;52.242;21.118;2023-05-07T03:20:09;6.20;;;5.60;;
33794;SDS011;51430;52.242;21.118;2023-05-07T03:22:38;6.60;;;5.30;;
33794;SDS011;51430;52.242;21.118;2023-05-07T03:25:08;5.70;;;5.00;;
33794;SDS011;51430;52.242;21.118;2023-05-07T03:27:36;5.00;;;4.60;;
33794;SDS011;51430;52.242;21.118;2023-05-07T03:30:04;5.80;;;4.70;;
33794;SDS011;51430;52.242;21.118;2023-05-07T03:32:35;5.30;;;4.80;;
33794;SDS011;51430;52.242;21.118;2023-05-07T03:35:03;4.60;;;4.10;;
33794;SDS011;51430;52.242;21.118;2023-05-07T03:37:35;5.10;;;4.70;;
33794;SDS011;51430;52.242;21.118;2023-05-07T03:40:04;5.10;;;4.60;;
33794;SDS011;51430;52.242;21.118;2023-05-07T03:42:35;6.60;;;5.20;;
33794;SDS011;51430;52.242;21.118;2023-05-07T03:45:03;5.90;;;5.10;;
33794;SDS011;51430;52.242;21.118;2023-05-07T03:47:33;6.60;;;4.90;;
33794;SDS011;51430;52.242;21.118;2023-05-07T03:50:01;6.40;;;4.90;;
33794;SDS011;51430;52.242;21.118;2023-05-07T03:52:29;5.30;;;4.60;;
33794;SDS011;51430;52.242;21.118;2023-05-07T03:54:57;4.60;;;4.20;;
33794;SDS011;51430;52.242;21.118;2023-05-07T03:57:24;4.20;;;3.80;;
33794;SDS011;51430;52.242;21.118;2023-05-07T03:59:52;5.60;;;4.10;;
33794;SDS011;51430;52.242;21.118;2023-05-07T04:02:20;4.50;;;4.10;;
33794;SDS011;51430;52.242;21.118;2023-05-07T04:04:48;4.70;;;4.20;;
33794;SDS011;51430;52.242;21.118;2023-05-07T04:07:16;4.90;;;4.50;;
33794;SDS011;51430;52.242;21.118;2023-05-07T04:09:44;4.80;;;4.40;;
33794;SDS011;51430;52.242;21.118;2023-05-07T04:12:12;5.30;;;4.50;;
33794;SDS011;51430;52.242;21.118;2023-05-07T04:14:40;4.90;;;4.50;;
33794;SDS011;51430;52.242;21.118;2023-05-07T04:17:07;4.90;;;4.50;;
33794;SDS011;51430;52.242;21.118;2023-05-07T04:19:37;4.50;;;4.10;;
33794;SDS011;51430;52.242;21.118;2023-05-07T04:22:04;4.40;;;4.00;;
33794;SDS011;51430;52.242;21.118;2023-05-07T04:24:32;5.00;;;4.30;;
33794;SDS011;51430;52.242;21.118;2023-05-07T04:27:00;5.10;;;4.60;;
33794;SDS011;51430;52.242;21.118;2023-05-07T04:29:29;4.70;;;4.30;;
33794;SDS011;51430;52.242;21.118;2023-05-07T04:31:56;4.80;;;4.40;;
33794;SDS011;51430;52.242;21.118;2023-05-07T04:34:26;5.00;;;4.30;;
33794;SDS011;51430;52.242;21.118;2023-05-07T04:36:54;4.40;;;4.00;;
33794;SDS011;51430;52.242;21.118;2023-05-07T04:39:21;4.80;;;4.10;;
33794;SDS011;51430;52.242;21.118;2023-05-07T04:41:49;5.10;;;4.30;;
33794;SDS011;51430;52.242;21.118;2023-05-07T04:44:18;4.20;;;3.80;;
33794;SDS011;51430;52.242;21.118;2023-05-07T04:46:45;5.40;;;4.00;;
33794;SDS011;51430;52.242;21.118;2023-05-07T04:49:13;4.40;;;4.00;;
33794;SDS011;51430;52.242;21.118;2023-05-07T04:51:40;3.90;;;3.60;;
33794;SDS011;51430;52.242;21.118;2023-05-07T04:54:11;4.00;;;3.70;;
33794;SDS011;51430;52.242;21.118;2023-05-07T04:56:39;4.00;;;3.60;;
33794;SDS011;51430;52.242;21.118;2023-05-07T04:59:06;3.90;;;3.60;;
33794;SDS011;51430;52.242;21.118;2023-05-07T05:01:34;3.90;;;3.50;;
33794;SDS011;51430;52.242;21.118;2023-05-07T05:04:02;4.00;;;3.70;;
33794;SDS011;51430;52.242;21.118;2023-05-07T05:06:30;4.20;;;3.80;;
33794;SDS011;51430;52.242;21.118;2023-05-07T05:08:58;4.40;;;4.00;;
33794;SDS011;51430;52.242;21.118;2023-05-07T05:11:26;6.20;;;3.70;;
33794;SDS011;51430;52.242;21.118;2023-05-07T05:13:54;3.50;;;3.20;;
33794;SDS011;51430;52.242;21.118;2023-05-07T05:16:22;3.60;;;3.30;;
33794;SDS011;51430;52.242;21.118;2023-05-07T05:18:50;4.20;;;3.10;;
33794;SDS011;51430;52.242;21.118;2023-05-07T05:21:19;4.40;;;3.20;;
33794;SDS011;51430;52.242;21.118;2023-05-07T05:23:48;3.90;;;3.30;;
33794;SDS011;51430;52.242;21.118;2023-05-07T05:26:15;4.20;;;3.20;;
33794;SDS011;51430;52.242;21.118;2023-05-07T05:28:43;4.30;;;2.90;;
33794;SDS011;51430;52.242;21.118;2023-05-07T05:31:13;3.30;;;3.00;;
33794;SDS011;51430;52.242;21.118;2023-05-07T05:33:41;3.30;;;3.00;;
33794;SDS011;51430;52.242;21.118;2023-05-07T05:36:09;3.20;;;2.70;;
33794;SDS011;51430;52.242;21.118;2023-05-07T05:38:38;3.60;;;3.20;;
33794;SDS011;51430;52.242;21.118;2023-05-07T05:41:06;4.40;;;3.10;;
33794;SDS011;51430;52.242;21.118;2023-05-07T05:43:34;3.30;;;3.00;;
33794;SDS011;51430;52.242;21.118;2023-05-07T05:46:01;3.50;;;2.70;;
33794;SDS011;51430;52.242;21.118;2023-05-07T05:48:31;2.70;;;2.50;;
33794;SDS011;51430;52.242;21.118;2023-05-07T05:50:59;3.00;;;2.70;;
33794;SDS011;51430;52.242;21.118;2023-05-07T05:53:27;3.50;;;2.50;;
33794;SDS011;51430;52.242;21.118;2023-05-07T05:55:55;2.50;;;2.30;;
33794;SDS011;51430;52.242;21.118;2023-05-07T05:58:23;3.20;;;2.60;;
33794;SDS011;51430;52.242;21.118;2023-05-07T06:00:50;3.80;;;2.30;;
33794;SDS011;51430;52.242;21.118;2023-05-07T06:03:19;2.90;;;2.30;;
33794;SDS011;51430;52.242;21.118;2023-05-07T06:05:47;4.20;;;2.70;;
33794;SDS011;51430;52.242;21.118;2023-05-07T06:08:15;2.70;;;2.50;;
33794;SDS011;51430;52.242;21.118;2023-05-07T06:10:43;2.90;;;2.30;;
33794;SDS011;51430;52.242;21.118;2023-05-07T06:13:10;3.10;;;2.40;;
33794;SDS011;51430;52.242;21.118;2023-05-07T06:15:38;3.60;;;2.40;;
33794;SDS011;51430;52.242;21.118;2023-05-07T06:18:06;2.90;;;2.70;;
33794;SDS011;51430;52.242;21.118;2023-05-07T06:20:34;2.90;;;2.30;;
33794;SDS011;51430;52.242;21.118;2023-05-07T06:23:01;2.80;;;2.50;;
33794;SDS011;51430;52.242;21.118;2023-05-07T06:25:29;2.60;;;2.30;;
33794;SDS011;51430;52.242;21.118;2023-05-07T06:27:57;3.90;;;2.40;;
33794;SDS011;51430;52.242;21.118;2023-05-07T06:30:25;2.70;;;2.50;;
33794;SDS011;51430;52.242;21.118;2023-05-07T06:32:54;3.40;;;2.70;;
33794;SDS011;51430;52.242;21.118;2023-05-07T06:35:22;3.10;;;2.60;;
33794;SDS011;51430;52.242;21.118;2023-05-07T06:37:49;3.00;;;2.60;;
33794;SDS011;51430;52.242;21.118;2023-05-07T06:40:17;2.90;;;2.60;;
33794;SDS011;51430;52.242;21.118;2023-05-07T06:42:45;2.60;;;2.40;;
33794;SDS011;51430;52.242;21.118;2023-05-07T06:45:13;3.00;;;2.40;;
33794;SDS011;51430;52.242;21.118;2023-05-07T06:47:40;2.40;;;2.20;;
33794;SDS011;51430;52.242;21.118;2023-05-07T06:50:08;2.60;;;2.40;;
33794;SDS011;51430;52.242;21.118;2023-05-07T06:52:37;2.50;;;2.30;;
33794;SDS011;51430;52.242;21.118;2023-05-07T06:55:05;2.20;;;2.10;;
33794;SDS011;51430;52.242;21.118;2023-05-07T06:57:33;2.70;;;2.10;;
33794;SDS011;51430;52.242;21.118;2023-05-07T07:00:01;2.60;;;2.30;;
33794;SDS011;51430;52.242;21.118;2023-05-07T07:02:29;2.60;;;2.20;;
33794;SDS011;51430;52.242;21.118;2023-05-07T07:04:56;2.40;;;2.20;;
33794;SDS011;51430;52.242;21.118;2023-05-07T07:07:24;2.80;;;2.30;;
33794;SDS011;51430;52.242;21.118;2023-05-07T07:09:52;3.50;;;2.40;;
33794;SDS011;51430;52.242;21.118;2023-05-07T07:12:19;2.60;;;2.40;;
33794;SDS011;51430;52.242;21.118;2023-05-07T07:14:47;2.50;;;2.30;;
33794;SDS011;51430;52.242;21.118;2023-05-07T07:17:15;2.40;;;2.20;;
33794;SDS011;51430;52.242;21.118;2023-05-07T07:19:43;2.40;;;2.00;;
33794;SDS011;51430;52.242;21.118;2023-05-07T07:22:10;2.30;;;2.10;;
33794;SDS011;51430;52.242;21.118;2023-05-07T07:24:39;2.50;;;2.10;;
33794;SDS011;51430;52.242;21.118;2023-05-07T07:27:07;2.70;;;2.50;;
33794;SDS011;51430;52.242;21.118;2023-05-07T07:29:34;2.60;;;2.30;;
33794;SDS011;51430;52.242;21.118;2023-05-07T07:32:03;2.20;;;2.10;;
33794;SDS011;51430;52.242;21.118;2023-05-07T07:34:31;2.60;;;2.40;;
33794;SDS011;51430;52.242;21.118;2023-05-07T07:36:58;3.80;;;2.20;;
33794;SDS011;51430;52.242;21.118;2023-05-07T07:39:32;2.50;;;2.20;;
33794;SDS011;51430;52.242;21.118;2023-05-07T07:42:00;3.40;;;2.40;;
33794;SDS011;51430;52.242;21.118;2023-05-07T07:44:28;3.20;;;2.20;;
33794;SDS011;51430;52.242;21.118;2023-05-07T07:46:56;3.30;;;2.30;;
33794;SDS011;51430;52.242;21.118;2023-05-07T07:49:23;3.60;;;2.30;;
33794;SDS011;51430;52.242;21.118;2023-05-07T07:51:51;2.80;;;2.20;;
33794;SDS011;51430;52.242;21.118;2023-05-07T07:54:19;3.50;;;2.30;;
33794;SDS011;51430;52.242;21.118;2023-05-07T07:56:46;2.50;;;2.10;;
33794;SDS011;51430;52.242;21.118;2023-05-07T07:59:14;2.60;;;2.20;;
33794;SDS011;51430;52.242;21.118;2023-05-07T08:01:45;2.40;;;2.20;;
33794;SDS011;51430;52.242;21.118;2023-05-07T08:04:13;2.30;;;2.10;;
33794;SDS011;51430;52.242;21.118;2023-05-07T08:06:40;2.50;;;1.90;;
33794;SDS011;51430;52.242;21.118;2023-05-07T08:09:08;3.30;;;2.30;;
33794;SDS011;51430;52.242;21.118;2023-05-07T08:11:36;2.30;;;2.10;;
33794;SDS011;51430;52.242;21.118;2023-05-07T08:14:03;2.40;;;2.10;;
33794;SDS011;51430;52.242;21.118;2023-05-07T08:16:32;2.90;;;2.10;;
33794;SDS011;51430;52.242;21.118;2023-05-07T08:19:00;2.30;;;2.10;;
33794;SDS011;51430;52.242;21.118;2023-05-07T08:21:28;4.00;;;2.30;;
33794;SDS011;51430;52.242;21.118;2023-05-07T08:23:55;3.80;;;2.10;;
33794;SDS011;51430;52.242;21.118;2023-05-07T08:26:23;2.20;;;2.00;;
33794;SDS011;51430;52.242;21.118;2023-05-07T08:28:54;3.10;;;2.00;;
33794;SDS011;51430;52.242;21.118;2023-05-07T08:31:21;2.50;;;2.00;;
33794;SDS011;51430;52.242;21.118;2023-05-07T08:33:49;2.90;;;1.90;;
33794;SDS011;51430;52.242;21.118;2023-05-07T08:36:17;2.90;;;2.10;;
33794;SDS011;51430;52.242;21.118;2023-05-07T08:38:47;2.90;;;1.90;;
33794;SDS011;51430;52.242;21.118;2023-05-07T08:41:14;3.60;;;2.00;;
33794;SDS011;51430;52.242;21.118;2023-05-07T08:43:44;2.90;;;1.80;;
33794;SDS011;51430;52.242;21.118;2023-05-07T08:46:17;2.10;;;1.70;;
33794;SDS011;51430;52.242;21.118;2023-05-07T08:48:49;2.70;;;2.00;;
33794;SDS011;51430;52.242;21.118;2023-05-07T08:51:18;5.20;;;2.00;;
33794;SDS011;51430;52.242;21.118;2023-05-07T08:53:48;2.00;;;1.80;;
33794;SDS011;51430;52.242;21.118;2023-05-07T08:56:17;4.10;;;1.90;;
33794;SDS011;51430;52.242;21.118;2023-05-07T08:58:48;2.10;;;1.90;;
33794;SDS011;51430;52.242;21.118;2023-05-07T09:01:16;2.70;;;1.90;;
33794;SDS011;51430;52.242;21.118;2023-05-07T09:03:45;2.50;;;1.60;;
33794;SDS011;51430;52.242;21.118;2023-05-07T09:06:14;2.40;;;1.70;;
33794;SDS011;51430;52.242;21.118;2023-05-07T09:08:48;2.40;;;1.70;;
33794;SDS011;51430;52.242;21.118;2023-05-07T09:11:21;2.10;;;1.60;;
33794;SDS011;51430;52.242;21.118;2023-05-07T09:13:53;2.70;;;1.80;;
33794;SDS011;51430;52.242;21.118;2023-05-07T09:16:29;3.10;;;2.00;;
33794;SDS011;51430;52.242;21.118;2023-05-07T09:18:58;2.50;;;1.90;;
33794;SDS011;51430;52.242;21.118;2023-05-07T09:21:28;3.20;;;1.80;;
33794;SDS011;51430;52.242;21.118;2023-05-07T09:23:55;2.40;;;1.90;;
33794;SDS011;51430;52.242;21.118;2023-05-07T09:26:24;2.80;;;1.70;;
33794;SDS011;51430;52.242;21.118;2023-05-07T09:28:54;2.20;;;1.80;;
33794;SDS011;51430;52.242;21.118;2023-05-07T09:31:22;2.80;;;1.90;;
33794;SDS011;51430;52.242;21.118;2023-05-07T09:33:53;3.30;;;1.90;;
33794;SDS011;51430;52.242;21.118;2023-05-07T09:36:23;2.80;;;1.80;;
33794;SDS011;51430;52.242;21.118;2023-05-07T09:38:51;2.80;;;1.90;;
33794;SDS011;51430;52.242;21.118;2023-05-07T09:41:19;2.80;;;1.80;;
33794;SDS011;51430;52.242;21.118;2023-05-07T09:43:47;3.20;;;1.90;;
33794;SDS011;51430;52.242;21.118;2023-05-07T09:46:25;2.60;;;1.70;;
33794;SDS011;51430;52.242;21.118;2023-05-07T09:48:57;2.70;;;1.80;;
33794;SDS011;51430;52.242;21.118;2023-05-07T09:51:29;1.90;;;1.60;;
33794;SDS011;51430;52.242;21.118;2023-05-07T09:54:00;3.90;;;1.70;;
33794;SDS011;51430;52.242;21.118;2023-05-07T09:56:30;3.90;;;1.70;;
33794;SDS011;51430;52.242;21.118;2023-05-07T09:59:00;4.40;;;1.60;;
33794;SDS011;51430;52.242;21.118;2023-05-07T10:01:29;2.10;;;1.70;;
33794;SDS011;51430;52.242;21.118;2023-05-07T10:03:58;2.80;;;1.90;;
33794;SDS011;51430;52.242;21.118;2023-05-07T10:06:27;1.80;;;1.60;;
33794;SDS011;51430;52.242;21.118;2023-05-07T10:08:56;3.40;;;1.80;;
33794;SDS011;51430;52.242;21.118;2023-05-07T10:11:24;3.70;;;1.80;;
33794;SDS011;51430;52.242;21.118;2023-05-07T10:13:52;2.20;;;1.60;;
33794;SDS011;51430;52.242;21.118;2023-05-07T10:16:23;2.60;;;1.60;;
33794;SDS011;51430;52.242;21.118;2023-05-07T10:18:52;3.00;;;1.60;;
33794;SDS011;51430;52.242;21.118;2023-05-07T10:21:22;2.40;;;1.60;;
33794;SDS011;51430;52.242;21.118;2023-05-07T10:23:53;2.10;;;1.50;;
33794;SDS011;51430;52.242;21.118;2023-05-07T10:26:31;1.70;;;1.30;;
33794;SDS011;51430;52.242;21.118;2023-05-07T10:29:11;2.60;;;1.50;;
33794;SDS011;51430;52.242;21.118;2023-05-07T10:34:19;2.30;;;1.30;;
33794;SDS011;51430;52.242;21.118;2023-05-07T10:36:50;2.80;;;1.50;;
33794;SDS011;51430;52.242;21.118;2023-05-07T10:39:20;3.30;;;1.50;;
33794;SDS011;51430;52.242;21.118;2023-05-07T10:41:49;2.70;;;1.40;;
33794;SDS011;51430;52.242;21.118;2023-05-07T10:44:29;3.00;;;1.70;;
33794;SDS011;51430;52.242;21.118;2023-05-07T10:47:07;3.40;;;1.60;;
33794;SDS011;51430;52.242;21.118;2023-05-07T10:50:19;4.10;;;1.90;;
33794;SDS011;51430;52.242;21.118;2023-05-07T10:52:33;2.60;;;1.50;;
33794;SDS011;51430;52.242;21.118;2023-05-07T10:57:46;2.80;;;1.60;;
33794;SDS011;51430;52.242;21.118;2023-05-07T11:03:05;3.30;;;1.80;;
33794;SDS011;51430;52.242;21.118;2023-05-07T11:05:34;3.70;;;1.60;;
33794;SDS011;51430;52.242;21.118;2023-05-07T11:08:05;3.20;;;1.60;;
33794;SDS011;51430;52.242;21.118;2023-05-07T11:16:16;2.50;;;1.70;;
33794;SDS011;51430;52.242;21.118;2023-05-07T11:18:49;3.20;;;1.50;;
33794;SDS011;51430;52.242;21.118;2023-05-07T11:21:40;2.30;;;1.80;;
33794;SDS011;51430;52.242;21.118;2023-05-07T11:24:09;2.70;;;1.80;;
33794;SDS011;51430;52.242;21.118;2023-05-07T11:26:44;2.10;;;1.60;;
33794;SDS011;51430;52.242;21.118;2023-05-07T11:29:16;2.20;;;1.50;;
33794;SDS011;51430;52.242;21.118;2023-05-07T11:31:48;2.50;;;1.80;;
33794;SDS011;51430;52.242;21.118;2023-05-07T11:34:25;2.40;;;1.60;;
33794;SDS011;51430;52.242;21.118;2023-05-07T11:36:55;3.50;;;1.70;;
33794;SDS011;51430;52.242;21.118;2023-05-07T11:39:26;3.20;;;1.70;;
33794;SDS011;51430;52.242;21.118;2023-05-07T11:41:56;2.60;;;1.80;;
33794;SDS011;51430;52.242;21.118;2023-05-07T11:44:24;3.60;;;1.60;;
33794;SDS011;51430;52.242;21.118;2023-05-07T11:46:51;2.20;;;1.50;;
33794;SDS011;51430;52.242;21.118;2023-05-07T11:49:19;4.60;;;1.60;;
33794;SDS011;51430;52.242;21.118;2023-05-07T11:51:47;3.00;;;1.50;;
33794;SDS011;51430;52.242;21.118;2023-05-07T11:54:15;3.70;;;1.40;;
33794;SDS011;51430;52.242;21.118;2023-05-07T11:56:43;1.70;;;1.50;;
33794;SDS011;51430;52.242;21.118;2023-05-07T11:59:16;3.50;;;1.60;;
33794;SDS011;51430;52.242;21.118;2023-05-07T12:01:45;5.30;;;1.30;;
33794;SDS011;51430;52.242;21.118;2023-05-07T12:04:13;1.60;;;1.50;;
33794;SDS011;51430;52.242;21.118;2023-05-07T12:06:42;3.90;;;1.50;;
33794;SDS011;51430;52.242;21.118;2023-05-07T12:09:09;2.60;;;1.60;;
33794;SDS011;51430;52.242;21.118;2023-05-07T12:11:39;1.80;;;1.50;;
33794;SDS011;51430;52.242;21.118;2023-05-07T12:14:07;2.30;;;1.30;;
33794;SDS011;51430;52.242;21.118;2023-05-07T12:16:39;3.10;;;1.50;;
33794;SDS011;51430;52.242;21.118;2023-05-07T12:19:08;2.60;;;1.50;;
33794;SDS011;51430;52.242;21.118;2023-05-07T12:21:42;2.60;;;1.60;;
33794;SDS011;51430;52.242;21.118;2023-05-07T12:24:10;1.70;;;1.40;;
33794;SDS011;51430;52.242;21.118;2023-05-07T12:26:38;2.80;;;1.50;;
33794;SDS011;51430;52.242;21.118;2023-05-07T12:29:08;1.50;;;1.40;;
33794;SDS011;51430;52.242;21.118;2023-05-07T12:31:35;1.80;;;1.40;;
33794;SDS011;51430;52.242;21.118;2023-05-07T12:34:03;3.80;;;1.50;;
33794;SDS011;51430;52.242;21.118;2023-05-07T12:36:38;2.60;;;1.50;;
33794;SDS011;51430;52.242;21.118;2023-05-07T12:39:07;3.30;;;1.60;;
33794;SDS011;51430;52.242;21.118;2023-05-07T12:41:57;2.10;;;1.50;;
33794;SDS011;51430;52.242;21.118;2023-05-07T12:44:32;2.20;;;1.50;;
33794;SDS011;51430;52.242;21.118;2023-05-07T12:47:01;3.00;;;1.60;;
33794;SDS011;51430;52.242;21.118;2023-05-07T12:49:29;2.30;;;1.50;;
33794;SDS011;51430;52.242;21.118;2023-05-07T12:51:57;2.40;;;1.50;;
33794;SDS011;51430;52.242;21.118;2023-05-07T12:54:29;2.60;;;1.50;;
33794;SDS011;51430;52.242;21.118;2023-05-07T12:57:01;1.60;;;1.20;;
33794;SDS011;51430;52.242;21.118;2023-05-07T12:59:33;1.40;;;1.30;;
33794;SDS011;51430;52.242;21.118;2023-05-07T13:02:04;4.00;;;1.20;;
33794;SDS011;51430;52.242;21.118;2023-05-07T13:04:33;2.90;;;1.40;;
33794;SDS011;51430;52.242;21.118;2023-05-07T13:07:01;1.60;;;1.30;;
33794;SDS011;51430;52.242;21.118;2023-05-07T13:09:28;1.60;;;1.20;;
33794;SDS011;51430;52.242;21.118;2023-05-07T13:11:57;2.20;;;1.30;;
33794;SDS011;51430;52.242;21.118;2023-05-07T13:14:28;1.50;;;1.30;;
33794;SDS011;51430;52.242;21.118;2023-05-07T13:16:56;2.30;;;1.40;;
33794;SDS011;51430;52.242;21.118;2023-05-07T13:19:24;2.10;;;1.20;;
33794;SDS011;51430;52.242;21.118;2023-05-07T13:21:51;1.80;;;1.30;;
33794;SDS011;51430;52.242;21.118;2023-05-07T13:24:19;1.60;;;1.00;;
33794;SDS011;51430;52.242;21.118;2023-05-07T13:26:47;1.70;;;1.30;;
33794;SDS011;51430;52.242;21.118;2023-05-07T13:29:15;2.60;;;1.30;;
33794;SDS011;51430;52.242;21.118;2023-05-07T13:31:43;2.10;;;1.20;;
33794;SDS011;51430;52.242;21.118;2023-05-07T13:34:11;2.10;;;1.20;;
33794;SDS011;51430;52.242;21.118;2023-05-07T13:36:39;1.70;;;1.20;;
33794;SDS011;51430;52.242;21.118;2023-05-07T13:39:09;2.30;;;1.30;;
33794;SDS011;51430;52.242;21.118;2023-05-07T13:41:37;1.90;;;1.30;;
33794;SDS011;51430;52.242;21.118;2023-05-07T13:44:04;1.70;;;1.30;;
33794;SDS011;51430;52.242;21.118;2023-05-07T13:46:32;1.50;;;1.30;;
33794;SDS011;51430;52.242;21.118;2023-05-07T13:49:00;2.10;;;1.20;;
33794;SDS011;51430;52.242;21.118;2023-05-07T13:51:28;2.10;;;1.40;;
33794;SDS011;51430;52.242;21.118;2023-05-07T13:53:56;1.50;;;1.30;;
33794;SDS011;51430;52.242;21.118;2023-05-07T13:56:23;1.90;;;1.20;;
33794;SDS011;51430;52.242;21.118;2023-05-07T13:58:51;2.00;;;1.10;;
33794;SDS011;51430;52.242;21.118;2023-05-07T14:01:27;1.40;;;1.30;;
33794;SDS011;51430;52.242;21.118;2023-05-07T14:03:55;1.80;;;1.10;;
33794;SDS011;51430;52.242;21.118;2023-05-07T14:06:25;3.50;;;1.40;;
33794;SDS011;51430;52.242;21.118;2023-05-07T14:08:53;3.30;;;1.10;;
33794;SDS011;51430;52.242;21.118;2023-05-07T14:11:20;2.40;;;1.30;;
33794;SDS011;51430;52.242;21.118;2023-05-07T14:13:48;2.90;;;1.60;;
33794;SDS011;51430;52.242;21.118;2023-05-07T14:16:16;1.90;;;1.40;;
33794;SDS011;51430;52.242;21.118;2023-05-07T14:18:44;2.40;;;1.10;;
33794;SDS011;51430;52.242;21.118;2023-05-07T14:21:12;2.50;;;1.60;;
33794;SDS011;51430;52.242;21.118;2023-05-07T14:23:40;3.30;;;1.60;;
33794;SDS011;51430;52.242;21.118;2023-05-07T14:26:08;1.50;;;1.40;;
33794;SDS011;51430;52.242;21.118;2023-05-07T14:28:36;2.80;;;1.50;;
33794;SDS011;51430;52.242;21.118;2023-05-07T14:31:07;1.80;;;1.40;;
33794;SDS011;51430;52.242;21.118;2023-05-07T14:33:35;2.80;;;1.30;;
33794;SDS011;51430;52.242;21.118;2023-05-07T14:36:02;2.00;;;1.40;;
33794;SDS011;51430;52.242;21.118;2023-05-07T14:38:30;1.70;;;1.40;;
33794;SDS011;51430;52.242;21.118;2023-05-07T14:41:03;2.20;;;1.30;;
33794;SDS011;51430;52.242;21.118;2023-05-07T14:43:31;1.80;;;1.50;;
33794;SDS011;51430;52.242;21.118;2023-05-07T14:45:59;2.80;;;1.70;;
33794;SDS011;51430;52.242;21.118;2023-05-07T14:48:26;2.30;;;1.50;;
33794;SDS011;51430;52.242;21.118;2023-05-07T14:50:54;1.70;;;1.40;;
33794;SDS011;51430;52.242;21.118;2023-05-07T14:53:23;3.00;;;1.50;;
33794;SDS011;51430;52.242;21.118;2023-05-07T14:55:51;3.30;;;1.60;;
33794;SDS011;51430;52.242;21.118;2023-05-07T14:58:18;2.90;;;1.70;;